sensor_id;sensor_type;location;lat;lon;timestamp;P1;durP1;ratioP1;P2;durP2;ratioP2
80123;SDS011;69433;48.642;9.142;2023-07-30T00:01:26;6.35;;;4.50;;
80123;SDS011;69433;48.642;9.142;2023-07-30T00:03:51;6.22;;;3.95;;
80123;SDS011;69433;48.642;9.142;2023-07-30T00:06:16;6.15;;;4.20;;
80123;SDS011;69433;48.642;9.142;2023-07-30T00:08:42;6.72;;;3.75;;
80123;SDS011;69433;48.642;9.142;2023-07-30T00:11:07;5.00;;;3.63;;
80123;SDS011;69433;48.642;9.142;2023-07-30T00:13:32;5.13;;;3.75;;
80123;SDS011;69433;48.642;9.142;2023-07-30T00:15:58;6.88;;;3.67;;
80123;SDS011;69433;48.642;9.142;2023-07-30T00:18:23;6.47;;;3.70;;
80123;SDS011;69433;48.642;9.142;2023-07-30T00:20:48;8.07;;;3.88;;
80123;SDS011;69433;48.642;9.142;2023-07-30T00:23:14;4.90;;;3.53;;
80123;SDS011;69433;48.642;9.142;2023-07-30T00:25:39;4.93;;;3.53;;
80123;SDS011;69433;48.642;9.142;2023-07-30T00:28:04;4.90;;;3.50;;
80123;SDS011;69433;48.642;9.142;2023-07-30T00:30:29;6.03;;;3.22;;
80123;SDS011;69433;48.642;9.142;2023-07-30T00:33:03;7.13;;;3.33;;
80123;SDS011;69433;48.642;9.142;2023-07-30T00:35:28;5.57;;;3.40;;
80123;SDS011;69433;48.642;9.142;2023-07-30T00:37:53;8.90;;;3.40;;
80123;SDS011;69433;48.642;9.142;2023-07-30T00:40:19;4.22;;;3.15;;
80123;SDS011;69433;48.642;9.142;2023-07-30T00:42:44;5.75;;;3.65;;
80123;SDS011;69433;48.642;9.142;2023-07-30T00:45:09;5.90;;;3.38;;
80123;SDS011;69433;48.642;9.142;2023-07-30T00:47:35;5.55;;;3.63;;
80123;SDS011;69433;48.642;9.142;2023-07-30T00:50:02;4.78;;;3.08;;
80123;SDS011;69433;48.642;9.142;2023-07-30T00:52:28;4.88;;;3.20;;
80123;SDS011;69433;48.642;9.142;2023-07-30T00:54:57;6.72;;;3.28;;
80123;SDS011;69433;48.642;9.142;2023-07-30T00:57:23;4.45;;;3.38;;
80123;SDS011;69433;48.642;9.142;2023-07-30T00:59:50;5.03;;;2.92;;
80123;SDS011;69433;48.642;9.142;2023-07-30T01:02:16;6.15;;;3.58;;
80123;SDS011;69433;48.642;9.142;2023-07-30T01:04:42;8.32;;;3.30;;
80123;SDS011;69433;48.642;9.142;2023-07-30T01:07:08;5.95;;;3.58;;
80123;SDS011;69433;48.642;9.142;2023-07-30T01:09:34;8.48;;;3.28;;
80123;SDS011;69433;48.642;9.142;2023-07-30T01:12:00;5.45;;;3.17;;
80123;SDS011;69433;48.642;9.142;2023-07-30T01:14:27;5.18;;;3.50;;
80123;SDS011;69433;48.642;9.142;2023-07-30T01:16:52;5.20;;;3.15;;
80123;SDS011;69433;48.642;9.142;2023-07-30T01:19:19;6.90;;;3.38;;
80123;SDS011;69433;48.642;9.142;2023-07-30T01:21:45;5.57;;;3.55;;
80123;SDS011;69433;48.642;9.142;2023-07-30T01:24:10;4.10;;;3.30;;
80123;SDS011;69433;48.642;9.142;2023-07-30T01:27:19;8.85;;;3.60;;
80123;SDS011;69433;48.642;9.142;2023-07-30T01:29:32;5.82;;;3.42;;
80123;SDS011;69433;48.642;9.142;2023-07-30T01:32:10;6.50;;;3.60;;
80123;SDS011;69433;48.642;9.142;2023-07-30T01:34:37;5.40;;;3.03;;
80123;SDS011;69433;48.642;9.142;2023-07-30T01:37:08;4.72;;;2.95;;
80123;SDS011;69433;48.642;9.142;2023-07-30T01:39:36;4.07;;;3.10;;
80123;SDS011;69433;48.642;9.142;2023-07-30T01:42:04;6.28;;;3.17;;
80123;SDS011;69433;48.642;9.142;2023-07-30T01:44:30;4.47;;;3.17;;
80123;SDS011;69433;48.642;9.142;2023-07-30T01:46:55;4.28;;;3.03;;
80123;SDS011;69433;48.642;9.142;2023-07-30T01:49:20;5.15;;;3.35;;
80123;SDS011;69433;48.642;9.142;2023-07-30T01:51:46;3.95;;;2.72;;
80123;SDS011;69433;48.642;9.142;2023-07-30T01:54:11;4.20;;;2.50;;
80123;SDS011;69433;48.642;9.142;2023-07-30T01:56:36;4.93;;;2.70;;
80123;SDS011;69433;48.642;9.142;2023-07-30T01:59:01;6.78;;;2.90;;
80123;SDS011;69433;48.642;9.142;2023-07-30T02:01:27;4.47;;;2.85;;
80123;SDS011;69433;48.642;9.142;2023-07-30T02:03:52;3.47;;;2.65;;
80123;SDS011;69433;48.642;9.142;2023-07-30T02:06:17;3.88;;;2.60;;
80123;SDS011;69433;48.642;9.142;2023-07-30T02:08:42;4.72;;;2.75;;
80123;SDS011;69433;48.642;9.142;2023-07-30T02:11:08;4.47;;;2.80;;
80123;SDS011;69433;48.642;9.142;2023-07-30T02:13:33;3.55;;;2.80;;
80123;SDS011;69433;48.642;9.142;2023-07-30T02:15:58;3.63;;;2.60;;
80123;SDS011;69433;48.642;9.142;2023-07-30T02:18:24;4.60;;;2.72;;
80123;SDS011;69433;48.642;9.142;2023-07-30T02:20:49;4.30;;;2.58;;
80123;SDS011;69433;48.642;9.142;2023-07-30T02:23:14;3.47;;;2.50;;
80123;SDS011;69433;48.642;9.142;2023-07-30T02:25:43;3.42;;;2.50;;
80123;SDS011;69433;48.642;9.142;2023-07-30T02:28:08;4.07;;;2.38;;
80123;SDS011;69433;48.642;9.142;2023-07-30T02:30:34;4.03;;;2.58;;
80123;SDS011;69433;48.642;9.142;2023-07-30T02:33:00;4.00;;;2.53;;
80123;SDS011;69433;48.642;9.142;2023-07-30T02:35:25;3.67;;;2.80;;
80123;SDS011;69433;48.642;9.142;2023-07-30T02:37:50;4.43;;;2.80;;
80123;SDS011;69433;48.642;9.142;2023-07-30T02:40:16;4.93;;;2.30;;
80123;SDS011;69433;48.642;9.142;2023-07-30T02:42:41;4.00;;;2.40;;
80123;SDS011;69433;48.642;9.142;2023-07-30T02:45:07;4.45;;;2.60;;
80123;SDS011;69433;48.642;9.142;2023-07-30T02:47:32;5.68;;;2.67;;
80123;SDS011;69433;48.642;9.142;2023-07-30T02:49:58;3.70;;;2.70;;
80123;SDS011;69433;48.642;9.142;2023-07-30T02:52:23;4.70;;;2.40;;
80123;SDS011;69433;48.642;9.142;2023-07-30T02:54:48;5.07;;;2.92;;
80123;SDS011;69433;48.642;9.142;2023-07-30T02:57:14;4.00;;;2.45;;
80123;SDS011;69433;48.642;9.142;2023-07-30T02:59:39;7.57;;;2.80;;
80123;SDS011;69433;48.642;9.142;2023-07-30T03:02:05;3.92;;;2.75;;
80123;SDS011;69433;48.642;9.142;2023-07-30T03:04:31;4.82;;;3.00;;
80123;SDS011;69433;48.642;9.142;2023-07-30T03:06:56;4.18;;;2.50;;
80123;SDS011;69433;48.642;9.142;2023-07-30T03:09:21;4.95;;;2.70;;
80123;SDS011;69433;48.642;9.142;2023-07-30T03:11:47;6.30;;;2.88;;
80123;SDS011;69433;48.642;9.142;2023-07-30T03:14:14;5.70;;;2.75;;
80123;SDS011;69433;48.642;9.142;2023-07-30T03:16:39;5.93;;;2.90;;
80123;SDS011;69433;48.642;9.142;2023-07-30T03:19:04;3.60;;;2.72;;
80123;SDS011;69433;48.642;9.142;2023-07-30T03:21:29;4.15;;;2.40;;
80123;SDS011;69433;48.642;9.142;2023-07-30T03:24:05;3.95;;;2.80;;
80123;SDS011;69433;48.642;9.142;2023-07-30T03:26:30;3.78;;;2.83;;
80123;SDS011;69433;48.642;9.142;2023-07-30T03:28:55;4.18;;;2.88;;
80123;SDS011;69433;48.642;9.142;2023-07-30T03:31:21;3.67;;;2.63;;
80123;SDS011;69433;48.642;9.142;2023-07-30T03:33:46;4.45;;;2.53;;
80123;SDS011;69433;48.642;9.142;2023-07-30T03:36:12;3.60;;;2.63;;
80123;SDS011;69433;48.642;9.142;2023-07-30T03:38:40;6.13;;;2.97;;
80123;SDS011;69433;48.642;9.142;2023-07-30T03:41:06;4.35;;;2.80;;
80123;SDS011;69433;48.642;9.142;2023-07-30T03:43:32;4.55;;;2.75;;
80123;SDS011;69433;48.642;9.142;2023-07-30T03:46:00;7.70;;;2.60;;
80123;SDS011;69433;48.642;9.142;2023-07-30T03:48:26;3.67;;;2.75;;
80123;SDS011;69433;48.642;9.142;2023-07-30T03:50:52;3.50;;;2.58;;
80123;SDS011;69433;48.642;9.142;2023-07-30T03:53:18;3.88;;;2.75;;
80123;SDS011;69433;48.642;9.142;2023-07-30T03:55:43;4.03;;;2.80;;
80123;SDS011;69433;48.642;9.142;2023-07-30T03:58:09;5.57;;;3.13;;
80123;SDS011;69433;48.642;9.142;2023-07-30T04:00:34;4.28;;;2.50;;
80123;SDS011;69433;48.642;9.142;2023-07-30T04:02:59;4.88;;;2.53;;
80123;SDS011;69433;48.642;9.142;2023-07-30T04:05:24;4.20;;;2.63;;
80123;SDS011;69433;48.642;9.142;2023-07-30T04:07:50;5.18;;;2.72;;
80123;SDS011;69433;48.642;9.142;2023-07-30T04:10:15;5.55;;;2.97;;
80123;SDS011;69433;48.642;9.142;2023-07-30T04:12:43;5.57;;;3.08;;
80123;SDS011;69433;48.642;9.142;2023-07-30T04:15:08;4.47;;;2.55;;
80123;SDS011;69433;48.642;9.142;2023-07-30T04:17:35;5.40;;;2.67;;
80123;SDS011;69433;48.642;9.142;2023-07-30T04:20:02;3.83;;;2.60;;
80123;SDS011;69433;48.642;9.142;2023-07-30T04:22:29;4.90;;;2.72;;
80123;SDS011;69433;48.642;9.142;2023-07-30T04:24:54;4.95;;;2.85;;
80123;SDS011;69433;48.642;9.142;2023-07-30T04:27:19;4.53;;;2.50;;
80123;SDS011;69433;48.642;9.142;2023-07-30T04:29:45;4.70;;;2.58;;
80123;SDS011;69433;48.642;9.142;2023-07-30T04:32:20;4.97;;;3.35;;
80123;SDS011;69433;48.642;9.142;2023-07-30T04:34:45;3.78;;;2.58;;
80123;SDS011;69433;48.642;9.142;2023-07-30T04:37:11;5.40;;;2.47;;
80123;SDS011;69433;48.642;9.142;2023-07-30T04:39:36;3.63;;;2.58;;
80123;SDS011;69433;48.642;9.142;2023-07-30T04:42:02;3.78;;;2.67;;
80123;SDS011;69433;48.642;9.142;2023-07-30T04:44:28;5.05;;;2.85;;
80123;SDS011;69433;48.642;9.142;2023-07-30T04:46:54;4.50;;;2.65;;
80123;SDS011;69433;48.642;9.142;2023-07-30T04:49:19;5.57;;;2.70;;
80123;SDS011;69433;48.642;9.142;2023-07-30T04:51:45;6.28;;;2.50;;
80123;SDS011;69433;48.642;9.142;2023-07-30T04:54:10;5.20;;;3.00;;
80123;SDS011;69433;48.642;9.142;2023-07-30T04:56:35;4.90;;;2.60;;
80123;SDS011;69433;48.642;9.142;2023-07-30T04:59:01;4.32;;;3.05;;
80123;SDS011;69433;48.642;9.142;2023-07-30T05:01:27;7.05;;;2.38;;
80123;SDS011;69433;48.642;9.142;2023-07-30T05:03:52;4.18;;;2.65;;
80123;SDS011;69433;48.642;9.142;2023-07-30T05:06:18;3.65;;;2.70;;
80123;SDS011;69433;48.642;9.142;2023-07-30T05:08:43;3.65;;;2.50;;
80123;SDS011;69433;48.642;9.142;2023-07-30T05:11:09;5.22;;;2.63;;
80123;SDS011;69433;48.642;9.142;2023-07-30T05:13:34;5.68;;;3.20;;
80123;SDS011;69433;48.642;9.142;2023-07-30T05:15:59;3.55;;;2.60;;
80123;SDS011;69433;48.642;9.142;2023-07-30T05:18:25;4.55;;;3.13;;
80123;SDS011;69433;48.642;9.142;2023-07-30T05:20:50;3.80;;;2.70;;
80123;SDS011;69433;48.642;9.142;2023-07-30T05:23:15;4.05;;;2.70;;
80123;SDS011;69433;48.642;9.142;2023-07-30T05:25:41;3.90;;;2.80;;
80123;SDS011;69433;48.642;9.142;2023-07-30T05:28:06;4.85;;;3.00;;
80123;SDS011;69433;48.642;9.142;2023-07-30T05:30:31;3.83;;;2.63;;
80123;SDS011;69433;48.642;9.142;2023-07-30T05:32:56;3.70;;;2.67;;
80123;SDS011;69433;48.642;9.142;2023-07-30T05:35:22;4.00;;;2.72;;
80123;SDS011;69433;48.642;9.142;2023-07-30T05:37:47;4.35;;;2.50;;
80123;SDS011;69433;48.642;9.142;2023-07-30T05:40:14;3.40;;;2.42;;
80123;SDS011;69433;48.642;9.142;2023-07-30T05:42:40;4.00;;;2.78;;
80123;SDS011;69433;48.642;9.142;2023-07-30T05:45:05;3.78;;;2.40;;
80123;SDS011;69433;48.642;9.142;2023-07-30T05:47:31;4.57;;;2.70;;
80123;SDS011;69433;48.642;9.142;2023-07-30T05:49:56;5.10;;;2.88;;
80123;SDS011;69433;48.642;9.142;2023-07-30T05:52:21;4.35;;;2.50;;
80123;SDS011;69433;48.642;9.142;2023-07-30T05:54:47;3.83;;;2.80;;
80123;SDS011;69433;48.642;9.142;2023-07-30T05:57:12;6.10;;;2.63;;
80123;SDS011;69433;48.642;9.142;2023-07-30T05:59:37;5.28;;;2.55;;
80123;SDS011;69433;48.642;9.142;2023-07-30T06:02:03;3.95;;;2.33;;
80123;SDS011;69433;48.642;9.142;2023-07-30T06:04:29;4.47;;;2.53;;
80123;SDS011;69433;48.642;9.142;2023-07-30T06:06:59;4.03;;;2.75;;
80123;SDS011;69433;48.642;9.142;2023-07-30T06:09:29;4.25;;;2.47;;
80123;SDS011;69433;48.642;9.142;2023-07-30T06:11:58;3.58;;;2.70;;
80123;SDS011;69433;48.642;9.142;2023-07-30T06:14:24;4.72;;;2.67;;
80123;SDS011;69433;48.642;9.142;2023-07-30T06:16:50;7.10;;;2.78;;
80123;SDS011;69433;48.642;9.142;2023-07-30T06:19:16;6.70;;;2.75;;
80123;SDS011;69433;48.642;9.142;2023-07-30T06:21:43;4.18;;;2.42;;
80123;SDS011;69433;48.642;9.142;2023-07-30T06:24:08;3.83;;;2.70;;
80123;SDS011;69433;48.642;9.142;2023-07-30T06:26:33;4.22;;;2.60;;
80123;SDS011;69433;48.642;9.142;2023-07-30T06:28:59;4.13;;;2.35;;
80123;SDS011;69433;48.642;9.142;2023-07-30T06:31:24;4.82;;;2.58;;
80123;SDS011;69433;48.642;9.142;2023-07-30T06:33:50;5.03;;;2.83;;
80123;SDS011;69433;48.642;9.142;2023-07-30T06:36:15;3.55;;;2.63;;
80123;SDS011;69433;48.642;9.142;2023-07-30T06:38:40;4.50;;;2.33;;
80123;SDS011;69433;48.642;9.142;2023-07-30T06:41:06;7.35;;;2.40;;
80123;SDS011;69433;48.642;9.142;2023-07-30T06:43:31;3.10;;;2.00;;
80123;SDS011;69433;48.642;9.142;2023-07-30T06:45:56;3.70;;;2.33;;
80123;SDS011;69433;48.642;9.142;2023-07-30T06:48:22;4.80;;;2.25;;
80123;SDS011;69433;48.642;9.142;2023-07-30T06:50:47;3.53;;;2.35;;
80123;SDS011;69433;48.642;9.142;2023-07-30T06:53:12;4.35;;;2.17;;
80123;SDS011;69433;48.642;9.142;2023-07-30T06:55:38;3.55;;;2.13;;
80123;SDS011;69433;48.642;9.142;2023-07-30T06:58:03;4.05;;;2.20;;
80123;SDS011;69433;48.642;9.142;2023-07-30T07:00:28;4.03;;;2.20;;
80123;SDS011;69433;48.642;9.142;2023-07-30T07:02:54;3.50;;;2.30;;
80123;SDS011;69433;48.642;9.142;2023-07-30T07:05:19;3.58;;;2.30;;
80123;SDS011;69433;48.642;9.142;2023-07-30T07:07:45;6.07;;;2.15;;
80123;SDS011;69433;48.642;9.142;2023-07-30T07:10:10;5.97;;;2.30;;
80123;SDS011;69433;48.642;9.142;2023-07-30T07:12:36;2.80;;;2.08;;
80123;SDS011;69433;48.642;9.142;2023-07-30T07:15:02;4.05;;;2.08;;
80123;SDS011;69433;48.642;9.142;2023-07-30T07:17:28;3.50;;;2.17;;
80123;SDS011;69433;48.642;9.142;2023-07-30T07:19:54;2.47;;;1.80;;
80123;SDS011;69433;48.642;9.142;2023-07-30T07:22:19;4.40;;;1.90;;
80123;SDS011;69433;48.642;9.142;2023-07-30T07:24:45;5.10;;;2.20;;
80123;SDS011;69433;48.642;9.142;2023-07-30T07:27:10;7.25;;;2.13;;
80123;SDS011;69433;48.642;9.142;2023-07-30T07:29:36;5.70;;;2.22;;
80123;SDS011;69433;48.642;9.142;2023-07-30T07:32:02;4.32;;;2.20;;
80123;SDS011;69433;48.642;9.142;2023-07-30T07:34:27;7.07;;;2.35;;
80123;SDS011;69433;48.642;9.142;2023-07-30T07:36:52;5.13;;;2.20;;
80123;SDS011;69433;48.642;9.142;2023-07-30T07:39:19;4.03;;;1.88;;
80123;SDS011;69433;48.642;9.142;2023-07-30T07:41:47;4.00;;;2.47;;
80123;SDS011;69433;48.642;9.142;2023-07-30T07:44:12;3.97;;;2.20;;
80123;SDS011;69433;48.642;9.142;2023-07-30T07:46:38;4.97;;;2.28;;
80123;SDS011;69433;48.642;9.142;2023-07-30T07:49:03;6.53;;;2.88;;
80123;SDS011;69433;48.642;9.142;2023-07-30T07:51:28;9.32;;;3.83;;
80123;SDS011;69433;48.642;9.142;2023-07-30T07:53:54;6.90;;;2.63;;
80123;SDS011;69433;48.642;9.142;2023-07-30T07:56:27;8.35;;;2.63;;
80123;SDS011;69433;48.642;9.142;2023-07-30T07:58:54;7.20;;;2.65;;
80123;SDS011;69433;48.642;9.142;2023-07-30T08:01:20;8.45;;;2.83;;
80123;SDS011;69433;48.642;9.142;2023-07-30T08:03:45;10.18;;;2.65;;
80123;SDS011;69433;48.642;9.142;2023-07-30T08:06:10;10.02;;;2.63;;
80123;SDS011;69433;48.642;9.142;2023-07-30T08:08:35;9.65;;;2.75;;
80123;SDS011;69433;48.642;9.142;2023-07-30T08:11:07;6.75;;;2.67;;
80123;SDS011;69433;48.642;9.142;2023-07-30T08:13:35;6.53;;;2.50;;
80123;SDS011;69433;48.642;9.142;2023-07-30T08:16:01;4.95;;;2.38;;
80123;SDS011;69433;48.642;9.142;2023-07-30T08:18:26;5.95;;;2.63;;
80123;SDS011;69433;48.642;9.142;2023-07-30T08:20:52;6.03;;;2.42;;
80123;SDS011;69433;48.642;9.142;2023-07-30T08:23:17;6.45;;;2.47;;
80123;SDS011;69433;48.642;9.142;2023-07-30T08:25:43;3.67;;;2.30;;
80123;SDS011;69433;48.642;9.142;2023-07-30T08:28:08;6.40;;;2.47;;
80123;SDS011;69433;48.642;9.142;2023-07-30T08:30:34;5.63;;;2.35;;
80123;SDS011;69433;48.642;9.142;2023-07-30T08:32:59;5.35;;;2.45;;
80123;SDS011;69433;48.642;9.142;2023-07-30T08:35:24;5.88;;;2.92;;
80123;SDS011;69433;48.642;9.142;2023-07-30T08:37:51;10.18;;;5.70;;
80123;SDS011;69433;48.642;9.142;2023-07-30T08:40:17;14.55;;;7.93;;
80123;SDS011;69433;48.642;9.142;2023-07-30T08:42:42;14.10;;;8.70;;
80123;SDS011;69433;48.642;9.142;2023-07-30T08:45:08;13.43;;;8.15;;
80123;SDS011;69433;48.642;9.142;2023-07-30T08:47:34;15.10;;;8.38;;
80123;SDS011;69433;48.642;9.142;2023-07-30T08:50:00;12.88;;;8.00;;
80123;SDS011;69433;48.642;9.142;2023-07-30T08:52:26;12.85;;;7.63;;
80123;SDS011;69433;48.642;9.142;2023-07-30T08:54:54;12.85;;;7.75;;
80123;SDS011;69433;48.642;9.142;2023-07-30T08:57:21;11.15;;;6.88;;
80123;SDS011;69433;48.642;9.142;2023-07-30T08:59:49;9.93;;;6.20;;
80123;SDS011;69433;48.642;9.142;2023-07-30T09:02:18;9.52;;;5.95;;
80123;SDS011;69433;48.642;9.142;2023-07-30T09:04:51;9.93;;;5.70;;
80123;SDS011;69433;48.642;9.142;2023-07-30T09:07:19;8.20;;;5.15;;
80123;SDS011;69433;48.642;9.142;2023-07-30T09:09:48;9.90;;;5.50;;
80123;SDS011;69433;48.642;9.142;2023-07-30T09:12:13;8.77;;;4.80;;
80123;SDS011;69433;48.642;9.142;2023-07-30T09:14:40;6.25;;;4.30;;
80123;SDS011;69433;48.642;9.142;2023-07-30T09:17:11;6.13;;;4.50;;
80123;SDS011;69433;48.642;9.142;2023-07-30T09:19:42;8.38;;;4.47;;
80123;SDS011;69433;48.642;9.142;2023-07-30T09:22:07;5.45;;;3.83;;
80123;SDS011;69433;48.642;9.142;2023-07-30T09:24:35;5.72;;;3.80;;
80123;SDS011;69433;48.642;9.142;2023-07-30T09:27:02;8.05;;;3.83;;
80123;SDS011;69433;48.642;9.142;2023-07-30T09:29:35;6.00;;;3.63;;
80123;SDS011;69433;48.642;9.142;2023-07-30T09:32:00;6.28;;;3.53;;
80123;SDS011;69433;48.642;9.142;2023-07-30T09:34:26;5.60;;;3.47;;
80123;SDS011;69433;48.642;9.142;2023-07-30T09:36:54;5.05;;;3.60;;
80123;SDS011;69433;48.642;9.142;2023-07-30T09:41:48;6.57;;;3.10;;
80123;SDS011;69433;48.642;9.142;2023-07-30T09:44:16;4.85;;;3.00;;
80123;SDS011;69433;48.642;9.142;2023-07-30T09:46:43;7.80;;;2.95;;
80123;SDS011;69433;48.642;9.142;2023-07-30T09:49:11;5.30;;;3.10;;
80123;SDS011;69433;48.642;9.142;2023-07-30T09:51:41;7.28;;;2.53;;
80123;SDS011;69433;48.642;9.142;2023-07-30T09:54:07;4.13;;;2.63;;
80123;SDS011;69433;48.642;9.142;2023-07-30T09:56:37;3.83;;;2.60;;
80123;SDS011;69433;48.642;9.142;2023-07-30T09:59:04;3.38;;;2.50;;
80123;SDS011;69433;48.642;9.142;2023-07-30T10:01:33;3.35;;;2.40;;
80123;SDS011;69433;48.642;9.142;2023-07-30T10:04:04;4.28;;;2.42;;
80123;SDS011;69433;48.642;9.142;2023-07-30T10:06:32;4.78;;;2.55;;
80123;SDS011;69433;48.642;9.142;2023-07-30T10:09:02;3.42;;;2.33;;
80123;SDS011;69433;48.642;9.142;2023-07-30T10:11:27;3.33;;;2.08;;
80123;SDS011;69433;48.642;9.142;2023-07-30T10:13:53;3.92;;;1.80;;
80123;SDS011;69433;48.642;9.142;2023-07-30T10:16:24;3.90;;;2.38;;
80123;SDS011;69433;48.642;9.142;2023-07-30T10:18:59;3.65;;;2.20;;
80123;SDS011;69433;48.642;9.142;2023-07-30T10:21:25;3.33;;;2.20;;
80123;SDS011;69433;48.642;9.142;2023-07-30T10:23:58;4.53;;;2.20;;
80123;SDS011;69433;48.642;9.142;2023-07-30T10:26:29;3.55;;;2.35;;
80123;SDS011;69433;48.642;9.142;2023-07-30T10:29:18;4.40;;;2.00;;
80123;SDS011;69433;48.642;9.142;2023-07-30T10:31:51;3.10;;;1.75;;
80123;SDS011;69433;48.642;9.142;2023-07-30T10:34:18;4.47;;;2.50;;
80123;SDS011;69433;48.642;9.142;2023-07-30T10:36:44;3.55;;;2.22;;
80123;SDS011;69433;48.642;9.142;2023-07-30T10:39:15;3.05;;;2.13;;
80123;SDS011;69433;48.642;9.142;2023-07-30T10:41:43;3.45;;;2.10;;
80123;SDS011;69433;48.642;9.142;2023-07-30T10:44:17;3.35;;;2.40;;
80123;SDS011;69433;48.642;9.142;2023-07-30T10:46:45;4.47;;;2.30;;
80123;SDS011;69433;48.642;9.142;2023-07-30T10:49:11;4.60;;;2.60;;
80123;SDS011;69433;48.642;9.142;2023-07-30T10:51:37;3.85;;;2.30;;
80123;SDS011;69433;48.642;9.142;2023-07-30T10:54:05;3.35;;;2.50;;
80123;SDS011;69433;48.642;9.142;2023-07-30T10:56:34;2.90;;;2.13;;
80123;SDS011;69433;48.642;9.142;2023-07-30T10:59:02;3.83;;;2.03;;
80123;SDS011;69433;48.642;9.142;2023-07-30T11:01:30;4.97;;;2.60;;
80123;SDS011;69433;48.642;9.142;2023-07-30T11:03:55;4.45;;;2.40;;
80123;SDS011;69433;48.642;9.142;2023-07-30T11:06:25;3.50;;;2.20;;
80123;SDS011;69433;48.642;9.142;2023-07-30T11:08:51;3.45;;;2.13;;
80123;SDS011;69433;48.642;9.142;2023-07-30T11:11:17;3.80;;;2.35;;
80123;SDS011;69433;48.642;9.142;2023-07-30T11:13:45;4.03;;;2.53;;
80123;SDS011;69433;48.642;9.142;2023-07-30T11:16:12;3.45;;;2.15;;
80123;SDS011;69433;48.642;9.142;2023-07-30T11:18:40;3.50;;;2.58;;
80123;SDS011;69433;48.642;9.142;2023-07-30T11:21:08;4.07;;;2.22;;
80123;SDS011;69433;48.642;9.142;2023-07-30T11:23:35;3.42;;;2.20;;
80123;SDS011;69433;48.642;9.142;2023-07-30T11:28:38;2.97;;;2.20;;
80123;SDS011;69433;48.642;9.142;2023-07-30T11:31:11;3.38;;;2.00;;
80123;SDS011;69433;48.642;9.142;2023-07-30T11:33:43;5.65;;;2.22;;
80123;SDS011;69433;48.642;9.142;2023-07-30T11:36:13;6.20;;;2.60;;
80123;SDS011;69433;48.642;9.142;2023-07-30T11:38:41;3.33;;;2.38;;
80123;SDS011;69433;48.642;9.142;2023-07-30T11:41:11;4.50;;;2.42;;
80123;SDS011;69433;48.642;9.142;2023-07-30T11:43:38;2.90;;;2.05;;
80123;SDS011;69433;48.642;9.142;2023-07-30T11:46:19;2.90;;;2.03;;
80123;SDS011;69433;48.642;9.142;2023-07-30T11:48:49;7.97;;;2.33;;
80123;SDS011;69433;48.642;9.142;2023-07-30T11:53:46;7.05;;;4.38;;
80123;SDS011;69433;48.642;9.142;2023-07-30T11:56:29;7.10;;;5.03;;
80123;SDS011;69433;48.642;9.142;2023-07-30T11:58:57;6.57;;;4.78;;
80123;SDS011;69433;48.642;9.142;2023-07-30T12:01:24;5.97;;;4.30;;
80123;SDS011;69433;48.642;9.142;2023-07-30T12:03:53;7.15;;;4.22;;
80123;SDS011;69433;48.642;9.142;2023-07-30T12:06:20;6.28;;;4.38;;
80123;SDS011;69433;48.642;9.142;2023-07-30T12:08:47;8.02;;;3.75;;
80123;SDS011;69433;48.642;9.142;2023-07-30T12:11:16;5.88;;;3.65;;
80123;SDS011;69433;48.642;9.142;2023-07-30T12:13:46;4.60;;;3.33;;
80123;SDS011;69433;48.642;9.142;2023-07-30T12:16:12;8.75;;;3.70;;
80123;SDS011;69433;48.642;9.142;2023-07-30T12:18:38;5.63;;;3.17;;
80123;SDS011;69433;48.642;9.142;2023-07-30T12:21:05;6.18;;;3.63;;
80123;SDS011;69433;48.642;9.142;2023-07-30T12:23:32;6.13;;;3.65;;
80123;SDS011;69433;48.642;9.142;2023-07-30T12:26:01;5.45;;;3.85;;
80123;SDS011;69433;48.642;9.142;2023-07-30T12:28:29;5.55;;;3.38;;
80123;SDS011;69433;48.642;9.142;2023-07-30T12:30:56;9.05;;;3.38;;
80123;SDS011;69433;48.642;9.142;2023-07-30T12:33:21;6.97;;;3.22;;
80123;SDS011;69433;48.642;9.142;2023-07-30T12:35:46;6.85;;;3.38;;
80123;SDS011;69433;48.642;9.142;2023-07-30T12:38:13;4.38;;;3.30;;
80123;SDS011;69433;48.642;9.142;2023-07-30T12:40:39;5.63;;;3.58;;
80123;SDS011;69433;48.642;9.142;2023-07-30T12:43:04;5.45;;;3.03;;
80123;SDS011;69433;48.642;9.142;2023-07-30T12:45:30;8.90;;;3.42;;
80123;SDS011;69433;48.642;9.142;2023-07-30T12:47:56;6.85;;;3.28;;
80123;SDS011;69433;48.642;9.142;2023-07-30T12:50:21;5.35;;;3.45;;
80123;SDS011;69433;48.642;9.142;2023-07-30T12:52:47;5.57;;;3.20;;
80123;SDS011;69433;48.642;9.142;2023-07-30T12:55:12;5.40;;;3.25;;
80123;SDS011;69433;48.642;9.142;2023-07-30T12:57:37;7.63;;;3.40;;
80123;SDS011;69433;48.642;9.142;2023-07-30T13:00:03;5.40;;;3.28;;
80123;SDS011;69433;48.642;9.142;2023-07-30T13:02:29;4.18;;;3.08;;
80123;SDS011;69433;48.642;9.142;2023-07-30T13:04:58;4.90;;;2.90;;
80123;SDS011;69433;48.642;9.142;2023-07-30T13:07:24;5.40;;;3.38;;
80123;SDS011;69433;48.642;9.142;2023-07-30T13:09:54;6.75;;;3.00;;
80123;SDS011;69433;48.642;9.142;2023-07-30T13:12:27;5.68;;;3.10;;
80123;SDS011;69433;48.642;9.142;2023-07-30T13:14:53;4.03;;;2.97;;
80123;SDS011;69433;48.642;9.142;2023-07-30T13:17:18;4.50;;;3.08;;
80123;SDS011;69433;48.642;9.142;2023-07-30T13:19:44;5.80;;;2.92;;
80123;SDS011;69433;48.642;9.142;2023-07-30T13:22:09;6.68;;;2.88;;
80123;SDS011;69433;48.642;9.142;2023-07-30T13:24:35;5.35;;;2.92;;
80123;SDS011;69433;48.642;9.142;2023-07-30T13:27:03;5.88;;;3.08;;
80123;SDS011;69433;48.642;9.142;2023-07-30T13:29:28;5.68;;;3.20;;
80123;SDS011;69433;48.642;9.142;2023-07-30T13:31:54;4.82;;;2.97;;
80123;SDS011;69433;48.642;9.142;2023-07-30T13:34:19;4.30;;;3.10;;
80123;SDS011;69433;48.642;9.142;2023-07-30T13:36:44;3.92;;;2.67;;
80123;SDS011;69433;48.642;9.142;2023-07-30T13:39:09;4.40;;;2.92;;
80123;SDS011;69433;48.642;9.142;2023-07-30T13:41:35;3.80;;;2.70;;
80123;SDS011;69433;48.642;9.142;2023-07-30T13:44:00;4.43;;;2.75;;
80123;SDS011;69433;48.642;9.142;2023-07-30T13:46:27;5.13;;;2.67;;
80123;SDS011;69433;48.642;9.142;2023-07-30T13:48:52;4.30;;;2.90;;
80123;SDS011;69433;48.642;9.142;2023-07-30T13:51:17;5.03;;;2.97;;
80123;SDS011;69433;48.642;9.142;2023-07-30T13:53:43;4.72;;;2.78;;
80123;SDS011;69433;48.642;9.142;2023-07-30T13:56:08;5.30;;;2.80;;
80123;SDS011;69433;48.642;9.142;2023-07-30T13:58:33;5.15;;;2.92;;
80123;SDS011;69433;48.642;9.142;2023-07-30T14:00:58;4.53;;;3.03;;
80123;SDS011;69433;48.642;9.142;2023-07-30T14:03:24;4.78;;;2.58;;
80123;SDS011;69433;48.642;9.142;2023-07-30T14:05:49;5.32;;;2.75;;
80123;SDS011;69433;48.642;9.142;2023-07-30T14:08:15;5.65;;;2.63;;
80123;SDS011;69433;48.642;9.142;2023-07-30T14:10:40;3.40;;;2.58;;
80123;SDS011;69433;48.642;9.142;2023-07-30T14:13:07;7.85;;;2.50;;
80123;SDS011;69433;48.642;9.142;2023-07-30T14:15:32;4.85;;;2.42;;
80123;SDS011;69433;48.642;9.142;2023-07-30T14:17:58;8.65;;;2.90;;
80123;SDS011;69433;48.642;9.142;2023-07-30T14:20:23;12.27;;;3.75;;
80123;SDS011;69433;48.642;9.142;2023-07-30T14:22:48;4.13;;;2.85;;
80123;SDS011;69433;48.642;9.142;2023-07-30T14:25:14;4.78;;;2.70;;
80123;SDS011;69433;48.642;9.142;2023-07-30T14:27:40;5.05;;;2.72;;
80123;SDS011;69433;48.642;9.142;2023-07-30T14:30:05;6.60;;;2.70;;
80123;SDS011;69433;48.642;9.142;2023-07-30T14:32:31;6.63;;;2.58;;
80123;SDS011;69433;48.642;9.142;2023-07-30T14:34:57;4.07;;;2.63;;
80123;SDS011;69433;48.642;9.142;2023-07-30T14:37:22;7.20;;;2.75;;
80123;SDS011;69433;48.642;9.142;2023-07-30T14:39:47;7.50;;;2.60;;
80123;SDS011;69433;48.642;9.142;2023-07-30T14:42:13;5.22;;;2.45;;
80123;SDS011;69433;48.642;9.142;2023-07-30T14:44:38;3.75;;;2.30;;
80123;SDS011;69433;48.642;9.142;2023-07-30T14:47:03;5.80;;;2.40;;
80123;SDS011;69433;48.642;9.142;2023-07-30T14:49:36;4.63;;;2.70;;
80123;SDS011;69433;48.642;9.142;2023-07-30T14:52:03;4.57;;;2.55;;